Time;durP1;ratioP1;P1;durP2;ratioP2;P2;SDS_P1;SDS_P2;PMS_P1;PMS_P2;Temp;Humidity;BMP_temperature;BMP_pressure;BME280_temperature;BME280_humidity;BME280_pressure;Samples;Min_cycle;Max_cycle;Signal;HPM_P1;HPM_P2
2021/07/06 00:01:12;;;;;;;3.53;2.60;;;19.00;2.20;20.10;99882.00;;;;5062148;28;20454;-78
2021/07/06 00:03:41;;;;;;;4.13;3.27;;;18.90;2.80;20.00;99893.00;;;;5064505;28;20908;-77
2021/07/06 00:06:09;;;;;;;4.90;2.80;;;18.90;3.30;19.90;99906.00;;;;5044003;28;20485;-78
2021/07/06 00:08:38;;;;;;;3.83;2.37;;;18.80;2.90;19.80;99867.00;;;;5038128;28;20826;-78
2021/07/06 00:11:06;;;;;;;5.43;3.33;;;18.90;3.00;19.70;99892.00;;;;5051981;28;20455;-78
2021/07/06 00:13:34;;;;;;;4.73;2.97;;;18.70;2.90;19.70;99884.00;;;;5085871;28;20451;-77
2021/07/06 00:16:03;;;;;;;5.33;3.07;;;18.70;4.00;19.60;99883.00;;;;5062917;28;20463;-78
2021/07/06 00:18:33;;;;;;;4.47;3.20;;;18.60;4.00;19.50;99894.00;;;;5072696;28;20454;-78
2021/07/06 00:21:01;;;;;;;5.60;3.10;;;18.60;4.80;19.40;99858.00;;;;5068165;28;20530;-77
2021/07/06 00:23:30;;;;;;;5.73;3.03;;;18.50;5.00;19.40;99856.00;;;;5067757;28;21345;-78
2021/07/06 00:25:58;;;;;;;5.80;3.03;;;18.50;5.30;19.30;99865.00;;;;5040392;28;20478;-78
2021/07/06 00:28:27;;;;;;;3.30;2.60;;;18.40;5.60;19.30;99880.00;;;;5063559;28;20469;-78
2021/07/06 00:30:55;;;;;;;5.60;3.10;;;18.40;5.90;19.30;99874.00;;;;5054900;28;20463;-78
2021/07/06 00:33:28;;;;;;;5.77;3.20;;;18.30;6.60;19.20;99864.00;;;;5053340;28;20824;-77
2021/07/06 00:35:59;;;;;;;3.77;3.07;;;18.20;6.70;19.10;99840.00;;;;5058299;28;20853;-77
2021/07/06 00:38:28;;;;;;;3.80;3.10;;;18.20;7.00;19.10;99848.00;;;;5063744;28;20459;-77
2021/07/06 00:41:01;;;;;;;6.80;3.13;;;18.20;7.50;19.10;99865.00;;;;5044027;28;20478;-77
2021/07/06 00:43:29;;;;;;;6.40;4.00;;;18.10;7.20;19.00;99851.00;;;;5062682;28;20990;-78
2021/07/06 00:46:00;;;;;;;6.47;3.80;;;18.00;8.00;19.00;99858.00;;;;5036636;28;20477;-77
2021/07/06 00:48:29;;;;;;;6.53;3.20;;;17.90;8.70;18.90;99857.00;;;;5046533;28;20479;-78
2021/07/06 00:50:59;;;;;;;6.93;3.50;;;17.80;9.00;18.80;99811.00;;;;5053820;28;20463;-77
2021/07/06 00:53:28;;;;;;;6.13;4.20;;;17.80;9.00;18.80;99811.00;;;;5069839;28;20491;-77
2021/07/06 00:55:58;;;;;;;6.47;3.87;;;17.70;9.50;18.80;99826.00;;;;5049478;28;20486;-77
2021/07/06 00:58:28;;;;;;;8.43;4.00;;;17.70;9.80;18.70;99848.00;;;;5050183;28;20478;-77
2021/07/06 01:00:57;;;;;;;5.10;3.80;;;17.70;9.80;18.70;99855.00;;;;5049181;28;20462;-77
2021/07/06 01:03:32;;;;;;;4.87;4.00;;;17.60;10.00;18.60;99801.00;;;;5057424;28;20497;-78
2021/07/06 01:06:02;;;;;;;7.17;3.87;;;17.60;9.90;18.60;99855.00;;;;5074278;28;20477;-78
2021/07/06 01:08:30;;;;;;;4.00;3.60;;;17.60;10.00;18.60;99850.00;;;;5057629;28;20474;-78
2021/07/06 01:11:00;;;;;;;8.10;3.80;;;17.60;10.10;18.50;99835.00;;;;5077431;28;20529;-78
2021/07/06 01:13:30;;;;;;;5.17;3.90;;;17.50;10.40;18.50;99853.00;;;;5067450;28;20478;-78
2021/07/06 01:15:58;;;;;;;5.73;3.83;;;17.50;10.50;18.50;99835.00;;;;5049293;28;20554;-78
2021/07/06 01:18:26;;;;;;;6.77;3.77;;;17.50;10.40;18.40;99831.00;;;;5067812;28;20442;-78
2021/07/06 01:20:57;;;;;;;4.87;3.57;;;17.50;10.90;18.40;99825.00;;;;5067797;28;20554;-78
2021/07/06 01:23:30;;;;;;;12.07;4.40;;;17.50;10.90;18.40;99830.00;;;;5066208;28;21428;-79
2021/07/06 01:26:03;;;;;;;6.57;3.50;;;17.50;11.00;18.40;99827.00;;;;5068527;28;20474;-78
2021/07/06 01:28:32;;;;;;;4.83;4.27;;;17.50;10.90;18.30;99824.00;;;;5074637;28;20486;-78
2021/07/06 01:31:00;;;;;;;5.50;3.87;;;17.40;10.90;18.30;99824.00;;;;5043471;28;20546;-78
2021/07/06 01:33:32;;;;;;;5.27;4.00;;;17.30;10.80;18.20;99810.00;;;;5069084;28;20466;-78
2021/07/06 01:36:05;;;;;;;4.97;4.47;;;17.30;10.80;18.20;99776.00;;;;5085942;28;20462;-78
2021/07/06 01:38:36;;;;;;;5.00;3.60;;;17.20;10.90;18.20;99766.00;;;;5086705;28;20439;-78
2021/07/06 01:41:06;;;;;;;7.10;4.40;;;17.20;11.70;18.10;99791.00;;;;5092563;28;20456;-77
2021/07/06 01:43:35;;;;;;;5.93;4.17;;;17.10;12.40;18.10;99780.00;;;;5087512;28;20459;-77
2021/07/06 01:46:03;;;;;;;8.77;4.60;;;17.00;12.10;18.10;99800.00;;;;5081852;28;20505;-77
2021/07/06 01:48:32;;;;;;;5.90;3.83;;;17.00;12.60;18.00;99811.00;;;;5075590;28;20537;-79
2021/07/06 01:51:00;;;;;;;4.67;4.17;;;17.00;12.60;18.00;99812.00;;;;5076900;28;20546;-78
2021/07/06 01:53:29;;;;;;;10.23;4.23;;;17.00;12.60;17.90;99800.00;;;;5086436;28;20527;-78
2021/07/06 01:55:59;;;;;;;4.87;3.60;;;17.00;12.20;17.90;99793.00;;;;5055468;28;20474;-79
2021/07/06 01:58:29;;;;;;;8.30;4.70;;;17.00;11.80;17.90;99774.00;;;;5070953;28;21015;-79
2021/07/06 02:01:00;;;;;;;4.27;3.87;;;17.00;12.00;17.90;99807.00;;;;5070956;28;20457;-79
2021/07/06 02:03:29;;;;;;;5.83;4.10;;;16.90;12.00;17.90;99792.00;;;;5071773;28;20447;-79
2021/07/06 02:05:59;;;;;;;5.27;4.00;;;16.90;12.10;17.80;99778.00;;;;5052534;28;20501;-78
2021/07/06 02:08:34;;;;;;;5.67;3.67;;;16.80;12.10;17.80;99782.00;;;;5076987;28;20469;-79
2021/07/06 02:11:04;;;;;;;6.50;3.70;;;16.80;12.60;17.80;99792.00;;;;5056653;28;20459;-79
2021/07/06 02:13:32;;;;;;;8.53;3.70;;;16.80;12.90;17.80;99795.00;;;;5051540;28;20455;-79
2021/07/06 02:16:02;;;;;;;6.43;4.07;;;16.90;12.80;17.80;99782.00;;;;5070835;28;20482;-79
2021/07/06 02:18:32;;;;;;;5.23;3.60;;;16.80;12.40;17.70;99783.00;;;;5072803;28;20482;-80
2021/07/06 02:21:01;;;;;;;7.33;4.50;;;16.80;12.30;17.70;99788.00;;;;5071442;28;20442;-78
2021/07/06 02:23:31;;;;;;;9.40;4.10;;;16.80;12.10;17.70;99798.00;;;;5057450;28;20542;-79
2021/07/06 02:26:04;;;;;;;8.43;4.10;;;16.80;12.50;17.70;99793.00;;;;5065299;28;20481;-78
2021/07/06 02:28:33;;;;;;;5.53;3.63;;;16.70;12.30;17.60;99781.00;;;;5065674;28;20458;-77
2021/07/06 02:31:03;;;;;;;8.37;4.67;;;16.70;12.40;17.60;99775.00;;;;5064873;28;20455;-78
2021/07/06 02:33:35;;;;;;;6.90;4.17;;;16.70;12.20;17.60;99740.00;;;;5066747;28;20466;-79
2021/07/06 02:36:06;;;;;;;5.70;4.13;;;16.70;12.10;17.60;99768.00;;;;5065999;28;20506;-78
2021/07/06 02:38:35;;;;;;;5.73;4.63;;;16.70;12.10;17.50;99747.00;;;;5038944;28;20467;-78
2021/07/06 02:41:05;;;;;;;8.20;4.40;;;16.70;12.10;17.50;99759.00;;;;5066497;28;20458;-78
2021/07/06 02:43:33;;;;;;;4.00;3.60;;;16.70;12.10;17.50;99764.00;;;;5066336;28;20453;-79
2021/07/06 02:46:02;;;;;;;6.73;4.00;;;16.60;12.30;17.50;99761.00;;;;5063943;28;20844;-78
2021/07/06 02:48:30;;;;;;;12.17;4.23;;;16.50;12.20;17.40;99743.00;;;;5067418;28;20520;-79
2021/07/06 02:50:58;;;;;;;6.23;4.37;;;16.50;12.20;17.40;99746.00;;;;5065295;28;20459;-79
2021/07/06 02:53:27;;;;;;;7.60;4.70;;;16.50;12.10;17.40;99747.00;;;;5065226;28;20513;-78
2021/07/06 02:55:55;;;;;;;5.10;4.60;;;16.40;11.90;17.40;99772.00;;;;5064956;28;20859;-78
2021/07/06 02:58:24;;;;;;;7.80;4.20;;;16.40;11.90;17.40;99759.00;;;;5065195;28;20475;-78
2021/07/06 03:00:53;;;;;;;5.13;3.80;;;16.40;12.10;17.30;99759.00;;;;5047174;28;20443;-78
2021/07/06 03:03:21;;;;;;;9.47;4.40;;;16.40;12.30;17.30;99769.00;;;;5048137;28;20455;-77
2021/07/06 03:05:50;;;;;;;8.17;4.57;;;16.40;12.50;17.30;99767.00;;;;5048480;28;20603;-78
2021/07/06 03:08:18;;;;;;;5.90;3.83;;;16.40;13.20;17.30;99770.00;;;;5045639;28;20959;-78
2021/07/06 03:11:01;;;;;;;11.73;3.90;;;16.40;13.20;17.30;99752.00;;;;5046711;28;20760;-77
2021/07/06 03:13:30;;;;;;;5.90;4.03;;;16.50;13.10;17.30;99763.00;;;;5053990;28;20457;-81
2021/07/06 03:16:00;;;;;;;7.03;4.20;;;16.50;13.20;17.30;99774.00;;;;5086824;28;20467;-79
2021/07/06 03:18:29;;;;;;;5.87;3.80;;;16.50;12.70;17.30;99765.00;;;;5090068;28;20455;-78
2021/07/06 03:20:57;;;;;;;9.27;4.40;;;16.50;12.40;17.30;99779.00;;;;5055955;28;20536;-77
2021/07/06 03:23:26;;;;;;;6.73;4.40;;;16.50;13.10;17.30;99754.00;;;;5076415;28;20459;-78
2021/07/06 03:25:55;;;;;;;8.10;4.47;;;16.40;12.60;17.10;99783.00;;;;5068418;28;20482;-78
2021/07/06 03:28:23;;;;;;;4.50;4.10;;;16.40;12.60;17.30;99776.00;;;;5068142;28;20469;-78
2021/07/06 03:30:53;;;;;;;8.87;4.67;;;16.40;12.50;17.30;99786.00;;;;5048773;28;20446;-79
2021/07/06 03:33:21;;;;;;;10.07;4.40;;;16.30;12.40;17.30;99785.00;;;;5066612;28;20947;-77
2021/07/06 03:35:50;;;;;;;4.77;4.17;;;16.40;12.60;17.30;99785.00;;;;5056505;28;20479;-81
2021/07/06 03:38:18;;;;;;;6.43;4.10;;;16.40;12.70;17.30;99773.00;;;;5045407;28;20471;-80
2021/07/06 03:40:47;;;;;;;5.20;4.20;;;16.30;12.80;17.20;99769.00;;;;5066169;28;20447;-80
2021/07/06 03:43:15;;;;;;;7.53;4.20;;;16.40;12.50;17.30;99786.00;;;;5067265;28;20455;-79
2021/07/06 03:45:44;;;;;;;5.17;3.77;;;16.40;12.40;17.30;99722.00;;;;5064898;28;20471;-78
2021/07/06 03:48:14;;;;;;;7.63;4.57;;;16.40;12.20;17.30;99760.00;;;;5047939;28;20485;-80
2021/07/06 03:50:42;;;;;;;6.30;4.60;;;16.40;12.00;17.30;99722.00;;;;5047627;28;20447;-78
2021/07/06 03:53:10;;;;;;;7.57;4.20;;;16.40;12.20;17.30;99762.00;;;;5047094;28;20466;-80
2021/07/06 03:55:39;;;;;;;5.53;4.57;;;16.40;12.20;17.30;99757.00;;;;5045946;28;20478;-77
2021/07/06 03:58:07;;;;;;;5.10;4.30;;;16.40;12.10;17.40;99734.00;;;;5065063;28;20458;-79
2021/07/06 04:00:40;;;;;;;4.57;4.03;;;16.40;12.10;17.40;99749.00;;;;5046177;28;20959;-79
2021/07/06 04:03:08;;;;;;;7.40;4.90;;;16.50;12.10;17.40;99749.00;;;;5038658;28;20501;-78
2021/07/06 04:05:39;;;;;;;6.10;4.70;;;16.50;11.80;17.40;99706.00;;;;5035861;28;20499;-80
2021/07/06 04:08:07;;;;;;;5.57;4.00;;;16.60;12.10;17.50;99707.00;;;;5065909;28;20454;-79
2021/07/06 04:10:36;;;;;;;4.47;3.83;;;16.60;12.10;17.50;99728.00;;;;5038277;28;20439;-78
2021/07/06 04:13:04;;;;;;;6.33;4.30;;;16.60;12.00;17.60;99745.00;;;;5065266;28;20514;-79
2021/07/06 04:15:33;;;;;;;6.20;3.83;;;16.70;12.00;17.60;99704.00;;;;5044252;28;20479;-78
2021/07/06 04:18:01;;;;;;;8.13;4.43;;;16.80;11.80;17.60;99730.00;;;;5047571;28;20471;-78
2021/07/06 04:20:29;;;;;;;10.57;4.87;;;16.70;11.50;17.60;99745.00;;;;5064737;28;20463;-78
2021/07/06 04:22:59;;;;;;;5.10;3.90;;;16.70;11.70;17.60;99728.00;;;;5065449;28;21210;-78
2021/07/06 04:25:28;;;;;;;5.77;4.37;;;16.80;11.60;17.70;99732.00;;;;5038834;28;20467;-78
2021/07/06 04:27:56;;;;;;;5.07;4.00;;;16.80;11.50;17.80;99697.00;;;;5036927;28;21560;-79
2021/07/06 04:30:24;;;;;;;8.40;4.10;;;16.90;11.60;17.90;99727.00;;;;5053778;28;20546;-79
2021/07/06 04:32:53;;;;;;;5.03;3.87;;;16.90;11.40;17.90;99718.00;;;;5063513;28;20456;-78
2021/07/06 04:35:22;;;;;;;9.17;4.20;;;17.00;11.30;17.90;99731.00;;;;5065211;28;20982;-79
2021/07/06 04:37:51;;;;;;;6.03;3.67;;;17.00;11.10;18.00;99748.00;;;;5046366;28;20455;-81
2021/07/06 04:40:21;;;;;;;5.30;3.83;;;17.10;11.00;18.00;99731.00;;;;5036096;28;20983;-78
2021/07/06 04:42:50;;;;;;;6.87;4.10;;;17.10;10.60;18.20;99728.00;;;;5065117;28;20453;-78
2021/07/06 04:45:18;;;;;;;6.57;4.10;;;17.40;10.40;18.30;99734.00;;;;5063822;28;20477;-78
2021/07/06 04:47:46;;;;;;;7.13;4.20;;;17.40;9.80;18.40;99718.00;;;;5064825;28;21041;-78
2021/07/06 04:50:16;;;;;;;5.80;3.80;;;17.50;9.10;18.50;99719.00;;;;5061425;28;20866;-78
2021/07/06 04:52:47;;;;;;;6.20;3.67;;;17.60;9.00;18.50;99713.00;;;;5063232;28;20959;-77
2021/07/06 04:55:17;;;;;;;9.30;3.90;;;17.70;8.60;18.80;99671.00;;;;5062314;28;20571;-78
2021/07/06 04:57:48;;;;;;;6.73;3.93;;;17.80;8.20;18.80;99731.00;;;;5066047;28;20825;-78
2021/07/06 05:00:18;;;;;;;7.40;4.10;;;17.90;7.70;18.80;99733.00;;;;5063990;28;20475;-78
2021/07/06 05:02:47;;;;;;;8.97;3.60;;;18.00;7.20;19.10;99725.00;;;;5046297;28;20570;-80
2021/07/06 05:05:20;;;;;;;9.87;4.00;;;18.20;6.20;19.20;99740.00;;;;5063648;28;20471;-78
2021/07/06 05:07:50;;;;;;;5.90;3.97;;;18.40;5.80;19.10;99700.00;;;;5063541;28;21144;-77
2021/07/06 05:10:18;;;;;;;6.17;3.43;;;18.50;4.10;19.20;99731.00;;;;5063877;28;20489;-79
2021/07/06 05:12:48;;;;;;;6.47;3.40;;;18.60;3.20;19.30;99743.00;;;;5065476;28;20861;-78
2021/07/06 05:15:17;;;;;;;11.10;3.83;;;18.70;2.80;19.30;99732.00;;;;5064090;28;20498;-79
2021/07/06 05:17:46;;;;;;;6.33;3.80;;;18.80;2.80;19.40;99719.00;;;;5043195;28;21029;-79
2021/07/06 05:20:15;;;;;;;4.70;3.70;;;18.90;1.00;19.50;99733.00;;;;5052670;28;20521;-77
2021/07/06 05:22:44;;;;;;;6.33;4.17;;;19.00;1.00;19.50;99701.00;;;;5062154;28;21636;-78
2021/07/06 05:25:14;;;;;;;6.73;3.83;;;19.00;1.00;19.50;99713.00;;;;5054320;28;20466;-81
2021/07/06 05:27:42;;;;;;;5.90;3.60;;;19.10;1.00;19.60;99715.00;;;;5056097;28;20457;-78
2021/07/06 05:30:15;;;;;;;9.43;3.97;;;19.10;1.00;19.70;99740.00;;;;5051717;28;20458;-79
2021/07/06 05:32:44;;;;;;;9.30;4.43;;;19.20;1.10;20.00;99746.00;;;;5063808;28;20506;-78
2021/07/06 05:35:14;;;;;;;7.30;3.50;;;19.50;1.00;20.20;99746.00;;;;5062123;28;21049;-77
2021/07/06 05:37:43;;;;;;;4.27;3.30;;;19.60;1.00;20.40;99756.00;;;;5037070;28;20457;-77
2021/07/06 05:40:14;;;;;;;6.87;3.67;;;19.70;1.00;20.50;99725.00;;;;5066686;28;20831;-78
2021/07/06 05:42:44;;;;;;;4.77;3.07;;;19.90;1.00;20.60;99750.00;;;;5057611;28;20992;-78
2021/07/06 05:45:15;;;;;;;4.13;3.00;;;19.90;1.00;20.70;99745.00;;;;5066697;28;20486;-78
2021/07/06 05:47:43;;;;;;;7.20;2.83;;;20.00;1.00;20.70;99705.00;;;;5067772;28;20531;-79
2021/07/06 05:50:16;;;;;;;5.10;3.17;;;20.10;1.00;20.60;99742.00;;;;5072228;28;20462;-80
2021/07/06 05:52:45;;;;;;;5.60;3.70;;;20.10;1.00;20.70;99736.00;;;;5070841;28;20455;-79
2021/07/06 05:55:14;;;;;;;8.23;3.30;;;20.10;1.00;20.70;99695.00;;;;5050213;28;20558;-80
2021/07/06 05:57:43;;;;;;;3.60;2.73;;;20.10;1.00;20.60;99749.00;;;;5092719;28;20439;-79
2021/07/06 06:00:16;;;;;;;9.43;3.77;;;20.10;1.00;20.70;99753.00;;;;5085683;28;20463;-78
2021/07/06 06:02:50;;;;;;;16.27;3.70;;;20.10;1.00;20.70;99741.00;;;;5056726;28;20458;-77
2021/07/06 06:05:19;;;;;;;11.50;3.60;;;20.10;1.00;20.80;99741.00;;;;5051735;28;21641;-77
2021/07/06 06:07:48;;;;;;;8.10;3.43;;;20.20;1.00;20.90;99728.00;;;;5051682;28;20477;-78
2021/07/06 06:10:18;;;;;;;9.33;3.37;;;20.30;1.00;21.00;99724.00;;;;5067490;28;20454;-78
2021/07/06 06:12:47;;;;;;;8.30;3.77;;;20.50;1.00;21.20;99686.00;;;;5069781;28;20457;-78
2021/07/06 06:15:16;;;;;;;4.93;2.43;;;20.60;1.00;21.40;99724.00;;;;5050094;28;20471;-79
2021/07/06 06:17:45;;;;;;;3.40;2.67;;;20.80;1.00;21.50;99702.00;;;;5082047;28;20447;-79
2021/07/06 06:20:15;;;;;;;6.30;2.97;;;20.90;1.00;21.60;99732.00;;;;5069198;28;20528;-79
2021/07/06 06:22:44;;;;;;;7.80;3.67;;;21.00;1.00;21.60;99735.00;;;;5072399;28;20997;-78
2021/07/06 06:25:13;;;;;;;6.57;2.70;;;21.10;1.00;21.80;99727.00;;;;5053110;28;20833;-77
2021/07/06 06:27:41;;;;;;;5.40;3.20;;;21.20;1.00;22.00;99721.00;;;;5073618;28;20554;-80
2021/07/06 06:30:13;;;;;;;4.00;2.93;;;21.40;1.00;22.20;99681.00;;;;5075180;28;20532;-78
2021/07/06 06:32:43;;;;;;;3.93;2.50;;;21.50;1.00;22.30;99714.00;;;;5077915;28;20546;-78
2021/07/06 06:35:13;;;;;;;3.50;2.60;;;21.70;1.00;22.60;99716.00;;;;5074050;28;20481;-77
2021/07/06 06:37:42;;;;;;;4.13;2.90;;;21.90;1.00;22.80;99698.00;;;;5068172;28;20814;-77
2021/07/06 06:40:12;;;;;;;5.00;2.60;;;22.00;1.00;22.90;99718.00;;;;5079322;28;20566;-78
2021/07/06 06:42:41;;;;;;;4.70;2.63;;;22.20;1.00;22.90;99688.00;;;;5073596;28;20451;-78
2021/07/06 06:45:12;;;;;;;8.43;2.60;;;22.30;1.00;22.90;99707.00;;;;5070775;28;20475;-79
2021/07/06 06:47:42;;;;;;;5.10;2.30;;;22.20;1.00;22.70;99736.00;;;;5054785;28;20490;-78
2021/07/06 06:50:14;;;;;;;3.07;2.60;;;22.00;1.00;22.60;99704.00;;;;5054552;28;20478;-79
2021/07/06 06:52:43;;;;;;;5.87;2.47;;;21.70;1.00;22.20;99712.00;;;;5071720;28;20447;-78
2021/07/06 06:55:12;;;;;;;2.80;2.47;;;21.60;1.00;22.30;99722.00;;;;5053616;28;20513;-78
2021/07/06 06:57:41;;;;;;;5.13;3.33;;;21.60;1.00;22.20;99733.00;;;;5068629;28;20473;-78
2021/07/06 07:00:11;;;;;;;5.43;3.03;;;21.50;1.00;22.00;99736.00;;;;5069135;28;20475;-77
2021/07/06 07:02:40;;;;;;;4.83;2.50;;;21.40;1.00;21.80;99754.00;;;;5044947;28;20470;-77
2021/07/06 07:05:12;;;;;;;3.53;2.83;;;21.20;1.00;21.70;99773.00;;;;5068866;28;20477;-79
2021/07/06 07:07:41;;;;;;;6.97;3.60;;;21.00;1.00;21.40;99771.00;;;;5046455;28;20455;-80
2021/07/06 07:10:11;;;;;;;4.83;3.30;;;20.60;1.00;21.20;99759.00;;;;5071420;28;20528;-81
2021/07/06 07:12:41;;;;;;;6.57;4.27;;;20.30;1.00;21.10;99748.00;;;;5086537;28;20464;-79
2021/07/06 07:15:12;;;;;;;6.07;3.80;;;20.20;1.00;21.20;99736.00;;;;5079933;28;20475;-78
2021/07/06 07:17:41;;;;;;;6.40;3.33;;;20.40;1.00;21.30;99700.00;;;;5071021;28;20462;-78
2021/07/06 07:20:12;;;;;;;7.03;3.60;;;20.60;1.00;21.40;99717.00;;;;5050956;28;21079;-78
2021/07/06 07:22:41;;;;;;;9.20;3.40;;;20.70;1.00;21.50;99709.00;;;;5068870;28;20493;-78
2021/07/06 07:25:11;;;;;;;5.60;4.03;;;20.80;1.00;21.50;99702.00;;;;5043444;28;20852;-79
2021/07/06 07:27:39;;;;;;;3.80;3.43;;;21.00;1.00;21.60;99686.00;;;;5070484;28;20542;-81
2021/07/06 07:30:11;;;;;;;9.90;3.67;;;21.20;1.00;21.70;99692.00;;;;5068786;28;20546;-79
2021/07/06 07:32:40;;;;;;;5.67;3.97;;;21.30;1.00;21.80;99675.00;;;;5070430;28;20504;-80
2021/07/06 07:35:11;;;;;;;8.33;3.80;;;21.50;1.00;21.80;99672.00;;;;5050740;28;20463;-78
2021/07/06 07:37:42;;;;;;;5.70;3.50;;;21.60;1.00;22.00;99680.00;;;;5051582;28;20521;-81
2021/07/06 07:40:13;;;;;;;6.27;3.27;;;21.90;1.00;22.50;99688.00;;;;5066812;28;20481;-79
2021/07/06 07:42:41;;;;;;;4.27;2.87;;;22.30;1.00;22.70;99682.00;;;;5058688;28;20573;-80
2021/07/06 07:45:12;;;;;;;3.37;2.73;;;22.50;1.00;22.90;99661.00;;;;5051943;28;20478;-81
2021/07/06 07:47:41;;;;;;;4.03;2.93;;;22.80;1.00;22.80;99669.00;;;;5060730;28;20486;-79
2021/07/06 07:50:12;;;;;;;5.60;3.10;;;22.80;1.00;22.60;99670.00;;;;5069300;28;20538;-78
2021/07/06 07:52:41;;;;;;;5.03;2.30;;;22.70;1.00;22.60;99718.00;;;;5071250;28;20447;-78
2021/07/06 07:55:11;;;;;;;6.40;3.40;;;22.60;1.00;22.70;99730.00;;;;5042695;28;20483;-78
2021/07/06 07:57:39;;;;;;;5.07;3.50;;;22.50;1.00;22.60;99743.00;;;;5068424;28;20875;-78
2021/07/06 08:00:11;;;;;;;3.47;2.90;;;22.30;1.00;22.40;99754.00;;;;5053009;28;21016;-80
2021/07/06 08:02:47;;;;;;;5.50;3.20;;;22.00;1.00;22.20;99765.00;;;;5071269;28;20462;-81
2021/07/06 08:05:18;;;;;;;7.07;3.40;;;21.80;1.00;22.00;99775.00;;;;5069326;28;20466;-78
2021/07/06 08:07:46;;;;;;;5.87;3.60;;;21.60;1.00;21.80;99773.00;;;;5070191;28;20465;-80
2021/07/06 08:10:15;;;;;;;5.30;3.60;;;21.30;1.00;21.50;99821.00;;;;5053844;28;20568;-79
2021/07/06 08:12:44;;;;;;;4.70;3.80;;;21.10;1.00;21.40;99800.00;;;;5080410;28;20462;-79
2021/07/06 08:15:13;;;;;;;6.50;3.43;;;20.90;1.00;21.20;99802.00;;;;5052115;28;20467;-79
2021/07/06 08:17:42;;;;;;;10.87;3.77;;;20.70;1.00;21.00;99775.00;;;;5074716;28;20459;-80
2021/07/06 08:20:13;;;;;;;5.30;4.00;;;20.50;1.00;20.80;99829.00;;;;5073869;28;20570;-80
2021/07/06 08:22:43;;;;;;;7.33;3.80;;;20.30;1.00;20.60;99812.00;;;;5043672;28;21053;-79
2021/07/06 08:25:13;;;;;;;9.43;4.10;;;20.10;1.00;20.50;99784.00;;;;5045696;28;20547;-77
2021/07/06 08:27:41;;;;;;;6.50;4.10;;;20.00;1.00;20.30;99834.00;;;;5072023;28;20456;-81
2021/07/06 08:30:11;;;;;;;6.07;4.90;;;19.80;1.40;20.20;99844.00;;;;5075200;28;20455;-81
2021/07/06 08:32:39;;;;;;;8.90;4.47;;;19.70;3.60;20.20;99868.00;;;;5053565;28;20550;-79
2021/07/06 08:35:10;;;;;;;7.63;5.37;;;19.60;5.60;20.10;99865.00;;;;5073885;28;20467;-82
2021/07/06 08:37:39;;;;;;;7.10;4.60;;;19.50;6.80;20.10;99862.00;;;;5048046;28;20463;-83
2021/07/06 08:40:11;;;;;;;9.10;5.00;;;19.40;8.50;19.90;99889.00;;;;5049689;28;21017;-83
2021/07/06 08:42:41;;;;;;;11.67;5.57;;;19.30;7.80;19.80;99900.00;;;;5078795;28;20569;-82
2021/07/06 08:45:12;;;;;;;8.00;5.63;;;19.20;8.00;19.90;99873.00;;;;5061037;28;21027;-85
2021/07/06 08:47:45;;;;;;;6.70;5.43;;;19.30;9.20;19.80;99877.00;;;;5088323;28;20427;-82
2021/07/06 08:50:15;;;;;;;6.63;5.03;;;19.20;9.10;19.80;99858.00;;;;5064248;28;20448;-80
2021/07/06 08:52:45;;;;;;;6.30;4.80;;;19.20;9.00;19.80;99928.00;;;;5079986;28;20506;-79
2021/07/06 08:55:18;;;;;;;7.03;5.47;;;19.10;9.10;19.50;99905.00;;;;5059660;28;20536;-78
2021/07/06 08:57:48;;;;;;;7.50;6.20;;;19.10;9.70;19.70;99890.00;;;;5076836;28;20457;-83
2021/07/06 09:00:20;;;;;;;7.83;5.87;;;19.10;10.50;19.80;99857.00;;;;5058890;28;20455;-87
2021/07/06 09:03:04;;;;;;;8.73;5.73;;;19.00;11.10;19.80;99877.00;;;;5075367;28;20455;-80
2021/07/06 09:05:33;;;;;;;7.70;6.53;;;19.10;11.90;19.90;99872.00;;;;5051452;28;20483;-81
2021/07/06 09:08:02;;;;;;;6.80;6.10;;;19.10;12.00;19.80;99883.00;;;;5067238;28;20820;-80
2021/07/06 09:10:38;;;;;;;8.30;5.90;;;19.10;12.40;19.70;99873.00;;;;5058915;28;20479;-80
2021/07/06 09:13:25;;;;;;;9.17;5.47;;;19.10;12.90;19.80;99899.00;;;;5074970;28;20461;-82
2021/07/06 09:15:56;;;;;;;6.03;4.70;;;19.10;13.00;20.00;99918.00;;;;5051870;28;20603;-81
2021/07/06 09:18:31;;;;;;;7.33;5.10;;;19.20;12.90;20.10;99900.00;;;;5079706;28;20509;-80
2021/07/06 09:21:04;;;;;;;6.47;5.77;;;19.30;11.70;20.10;99878.00;;;;5053390;28;20481;-79
2021/07/06 09:23:37;;;;;;;6.03;4.70;;;19.40;11.60;20.10;99920.00;;;;5078501;28;20466;-78
2021/07/06 09:26:17;;;;;;;6.60;5.37;;;19.40;11.00;20.10;99901.00;;;;5082217;28;20487;-81
2021/07/06 09:28:48;;;;;;;5.73;5.00;;;19.40;11.40;20.10;99902.00;;;;5084975;28;20450;-82
2021/07/06 09:31:28;;;;;;;10.77;5.30;;;19.30;11.50;20.10;99945.00;;;;5079631;28;20439;-80
2021/07/06 09:34:02;;;;;;;5.50;4.37;;;19.30;11.80;20.00;99923.00;;;;5072575;28;20459;-79
2021/07/06 09:36:39;;;;;;;5.17;4.00;;;19.30;11.90;20.00;99948.00;;;;5072803;28;20478;-81
2021/07/06 09:39:20;;;;;;;4.67;4.27;;;19.30;11.80;20.20;99948.00;;;;5048824;28;20447;-78
2021/07/06 09:41:59;;;;;;;5.80;4.60;;;19.50;11.80;20.30;99956.00;;;;5047494;28;20483;-81
2021/07/06 09:44:32;;;;;;;7.37;4.70;;;19.50;11.20;20.30;99959.00;;;;5082001;28;20500;-81
2021/07/06 09:47:06;;;;;;;8.00;4.40;;;19.60;11.50;20.40;99915.00;;;;5076591;28;20462;-80
2021/07/06 09:49:38;;;;;;;6.73;4.33;;;19.70;10.90;20.40;99943.00;;;;5048855;28;20640;-79
2021/07/06 09:52:13;;;;;;;4.80;3.90;;;19.70;10.80;20.70;99918.00;;;;5053666;28;20533;-79
2021/07/06 09:54:46;;;;;;;5.40;4.03;;;19.90;10.00;20.70;99913.00;;;;5072547;28;20474;-80
2021/07/06 09:57:23;;;;;;;5.60;4.03;;;20.00;9.40;20.80;99916.00;;;;5054195;28;20529;-79
2021/07/06 10:00:02;;;;;;;3.90;3.47;;;20.00;8.90;20.80;99903.00;;;;5058256;28;20528;-81
2021/07/06 10:02:41;;;;;;;5.43;4.50;;;20.10;8.40;20.80;99920.00;;;;5084261;28;20478;-84
2021/07/06 10:05:16;;;;;;;5.30;3.70;;;20.00;8.50;20.90;99900.00;;;;5063638;28;20482;-81
2021/07/06 10:07:45;;;;;;;6.67;3.67;;;20.00;8.20;20.90;99887.00;;;;5055557;28;20463;-82
2021/07/06 10:10:15;;;;;;;5.10;3.63;;;20.10;8.40;20.90;99854.00;;;;5061675;28;20696;-80
2021/07/06 10:12:48;;;;;;;4.73;3.90;;;20.10;8.00;20.80;99849.00;;;;5067571;28;20455;-82
2021/07/06 10:15:22;;;;;;;4.70;4.07;;;20.10;7.70;20.90;99812.00;;;;5058304;28;20488;-83
2021/07/06 10:17:52;;;;;;;5.70;3.73;;;20.00;8.20;20.90;99827.00;;;;5072449;28;20523;-81
2021/07/06 10:20:26;;;;;;;5.03;3.70;;;20.10;8.40;21.00;99835.00;;;;5074291;28;20839;-80
2021/07/06 10:22:57;;;;;;;4.00;2.70;;;20.10;8.40;21.20;99850.00;;;;5072577;28;20501;-80
2021/07/06 10:25:28;;;;;;;2.60;2.33;;;20.20;7.60;21.10;99864.00;;;;5072394;28;20470;-80
2021/07/06 10:28:01;;;;;;;3.07;2.40;;;20.30;6.00;21.20;99864.00;;;;5055578;28;20443;-81
2021/07/06 10:30:41;;;;;;;4.33;3.07;;;20.30;5.50;21.00;99910.00;;;;5055327;28;20496;-82
2021/07/06 10:33:15;;;;;;;3.73;3.23;;;20.30;5.70;21.10;99904.00;;;;5064934;28;20458;-80
2021/07/06 10:35:49;;;;;;;5.33;2.77;;;20.20;5.90;21.00;99935.00;;;;5058799;28;20471;-81
2021/07/06 10:38:48;;;;;;;4.17;2.80;;;20.20;5.70;20.90;99960.00;;;;5056358;28;20472;-82
2021/07/06 10:41:22;;;;;;;4.40;2.93;;;20.30;6.10;21.00;99910.00;;;;5061401;28;20459;-81
2021/07/06 10:43:59;;;;;;;3.83;2.80;;;20.30;6.10;21.10;99928.00;;;;5074772;28;20537;-82
2021/07/06 10:46:50;;;;;;;3.53;2.40;;;20.30;6.40;21.30;99912.00;;;;5046816;28;20516;-81
2021/07/06 10:49:32;;;;;;;3.07;2.10;;;20.40;6.00;21.60;99916.00;;;;5041388;28;21081;-81
2021/07/06 10:52:03;;;;;;;2.40;2.20;;;20.70;5.20;22.00;99908.00;;;;5073494;28;21165;-81
2021/07/06 10:54:37;;;;;;;2.90;2.40;;;21.00;4.50;22.40;99906.00;;;;5071529;28;20473;-81
2021/07/06 10:57:24;;;;;;;2.47;2.20;;;21.40;1.60;22.90;99903.00;;;;5056450;28;20502;-80
2021/07/06 11:00:01;;;;;;;3.67;2.73;;;22.00;1.00;23.20;99881.00;;;;5077265;28;20971;-82
2021/07/06 11:02:32;;;;;;;2.90;2.20;;;22.30;1.00;23.50;99889.00;;;;5056460;28;20952;-82
2021/07/06 11:05:07;;;;;;;3.50;1.70;;;22.60;1.00;23.80;99887.00;;;;5061427;28;20597;-81
2021/07/06 11:08:01;;;;;;;16.10;9.53;;;23.00;1.00;24.10;99871.00;;;;5074974;28;20462;-82
2021/07/06 11:10:39;;;;;;;3.23;2.20;;;23.20;1.00;24.20;99891.00;;;;5045648;28;21108;-81
2021/07/06 11:13:31;;;;;;;2.77;1.60;;;23.30;1.00;24.50;99878.00;;;;5062281;28;20531;-82